Latest Weather Observations for Toowoomba

IDQ60901

Issued at 8:21 am EST Friday 30 January 2015 (issued every 10 minutes, with the page automatically refreshed every 10 minutes)

About weather observations | Map of Brisbane area stations | Latest observations for Brisbane area | Other Formats
Station Details ID: 041529 Name: TOOWOOMBA AIRPORT Lat: -27.54 Lon: 151.91 Height: 640.9 m
Data from the previous 72 hours. | See also: Recent months at Toowoomba
Date/Time
EST
Tmp

°C
App
Tmp
°C
Dew
Point
°C
Rel
Hum
%
Delta-T

°C
Wind Press
QNH
hPa
Press
MSL
hPa
Rain
since
9 am
mm
Dir
 
Spd
km/h
Gust
km/h
Spd
kts
Gust
kts
30/08:00am 19.1 17.1 15.6 80 2.1 ENE 20 26 11 14 1013.2 1009.5 0.0
30/07:30am 18.7 16.7 15.6 82 1.9 E 20 26 11 14 1013.0 1009.3 0.0
30/07:00am 17.8 15.9 15.2 85 1.6 ENE 19 26 10 14 1013.0 1009.3 0.0
30/06:30am 17.2 15.4 15.4 89 1.1 E 19 24 10 13 1012.7 1009.0 0.0
30/06:00am 16.4 14.5 15.3 93 0.7 E 19 24 10 13 1012.5 1008.8 0.0
30/05:30am 16.2 14.1 15.2 94 0.6 E 20 26 11 14 1012.2 1008.4 0.0
30/05:00am 16.3 14.2 15.3 94 0.6 E 20 26 11 14 1012.0 1008.2 0.0
30/04:30am 16.4 14.0 15.3 93 0.7 E 22 30 12 16 1011.8 1008.1 0.0
30/04:00am 16.6 13.8 15.3 92 0.8 E 24 30 13 16 1011.7 1008.0 0.0
30/03:30am 16.7 14.4 15.6 93 0.7 E 22 30 12 16 1011.7 1008.0 0.0
30/03:00am 16.7 14.7 15.4 92 0.8 E 20 26 11 14 1011.8 1008.1 0.0
30/02:30am 16.8 14.7 15.3 91 0.9 E 20 28 11 15 1012.0 1008.2 0.0
30/02:00am 17.0 15.0 15.5 91 0.9 E 20 28 11 15 1012.1 1008.3 0.0
30/01:30am 17.1 14.3 15.4 90 1.0 E 24 30 13 16 1012.4 1008.7 0.0
30/01:00am 17.1 14.5 15.8 92 0.8 E 24 30 13 16 1012.5 1008.8 0.0
30/12:30am 17.3 14.9 15.5 89 1.1 E 22 28 12 15 1012.6 1008.9 0.0
30/12:00am 17.4 15.1 15.6 89 1.1 E 22 30 12 16 1012.7 1009.0 0.0
 
Date/Time
EST
Tmp

°C
App
Tmp
°C
Dew
Point
°C
Rel
Hum
%
Delta-T

°C
Wind Press
QNH
hPa
Press
MSL
hPa
Rain
since
9 am
mm
Dir
 
Spd
km/h
Gust
km/h
Spd
kts
Gust
kts
29/11:42pm 17.5 15.3 16.0 91 0.9 E 22 28 12 15 1012.9 1009.2 0.0
29/11:30pm 17.4 14.8 15.9 91 0.9 E 24 32 13 17 1013.0 1009.3 0.0
29/11:00pm 17.7 14.9 16.4 92 0.8 E 26 33 14 18 1013.1 1009.4 0.0
29/10:30pm 17.8 15.1 16.5 92 0.8 E 26 35 14 19 1013.3 1009.6 0.0
29/10:27pm 17.8 15.1 16.5 92 0.8 E 26 35 14 19 1013.4 1009.7 0.0
29/10:00pm 18.1 15.9 16.8 92 0.8 E 24 28 13 15 1013.4 1009.7 0.0
29/09:30pm 18.6 17.0 16.6 88 1.2 E 20 28 11 15 1013.2 1009.5 0.0
29/09:00pm 19.2 17.3 16.6 85 1.6 E 22 28 12 15 1013.0 1009.3 0.0
29/08:30pm 19.5 17.8 16.3 82 2.0 ESE 20 26 11 14 1012.7 1009.0 0.0
29/08:00pm 20.6 19.1 16.2 76 2.7 ESE 19 28 10 15 1012.4 1008.7 0.0
29/07:30pm 21.8 21.4 15.2 66 4.0 E 11 13 6 7 1012.0 1008.2 0.0
29/07:00pm 22.3 22.3 15.2 64 4.3 E 9 13 5 7 1011.6 1007.9 0.0
29/06:30pm 23.1 22.9 14.7 59 5.1 SE 9 13 5 7 1011.4 1007.7 0.0
29/06:00pm 24.3 21.8 12.3 47 7.1 SW 17 24 9 13 1010.9 1007.1 0.0
29/05:30pm 25.1 24.6 12.7 46 7.4 SW 7 17 4 9 1010.5 1006.7 0.0
29/05:00pm 24.1 22.0 12.4 48 6.9 SW 15 24 8 13 1010.3 1006.5 0.0
29/04:30pm 25.5 24.5 12.4 44 7.8 SW 9 15 5 8 1010.0 1006.3 0.0
29/04:00pm 25.7 23.6 12.5 44 7.9 SW 15 20 8 11 1010.0 1006.3 0.0
29/03:30pm 25.6 23.9 13.5 47 7.3 SSW 15 22 8 12 1010.1 1006.4 0.0
29/03:00pm 24.3 22.8 13.2 50 6.6 SW 13 19 7 10 1010.3 1006.5 0.0
29/02:30pm 24.3 22.7 13.8 52 6.3 SSW 15 22 8 12 1010.5 1006.7 0.0
29/02:00pm 24.5 22.5 12.8 48 7.0 S 15 24 8 13 1010.6 1006.8 0.0
29/01:30pm 24.9 23.2 12.5 46 7.3 WSW 13 22 7 12 1010.8 1007.0 0.0
29/01:00pm 24.9 23.3 15.0 54 6.1 SW 17 22 9 12 1011.1 1007.4 0.0
29/12:30pm 23.6 22.6 13.5 53 6.0 SSW 11 20 6 11 1011.4 1007.7 0.0
29/12:00pm 22.8 22.5 15.4 63 4.6 E 11 17 6 9 1011.6 1007.9 0.0
29/11:30am 22.6 23.1 15.0 62 4.6 E 6 13 3 7 1012.0 1008.2 0.0
29/11:00am 22.4 22.1 14.3 60 4.9 ESE 9 15 5 8 1012.3 1008.5 0.0
29/10:30am 22.3 21.3 14.7 62 4.6 E 13 19 7 10 1012.6 1008.9 0.0
29/10:00am 21.8 20.8 14.7 64 4.3 SE 13 17 7 9 1012.6 1008.9 0.0
29/09:30am 21.3 19.4 14.2 64 4.3 ESE 17 22 9 12 1012.6 1008.9 0.0
29/09:00am 20.7 18.0 13.6 64 4.2 E 20 24 11 13 1012.4 1008.7 0.2
29/08:30am 20.2 17.4 13.2 64 4.1 E 20 28 11 15 1012.3 1008.5 0.2
29/08:00am 19.6 17.7 14.2 71 3.2 E 17 22 9 12 1012.0 1008.2 0.2
29/07:30am 18.1 16.4 13.6 75 2.6 E 15 20 8 11 1012.0 1008.2 0.2
29/07:00am 17.5 15.5 13.8 79 2.2 E 17 22 9 12 1011.6 1007.9 0.2
29/06:30am 16.4 14.3 13.7 84 1.6 E 17 20 9 11 1011.4 1007.7 0.2
29/06:00am 15.2 13.4 13.4 89 1.0 ESE 15 17 8 9 1011.3 1007.6 0.2
29/05:30am 14.9 12.6 13.1 89 1.0 ESE 17 20 9 11 1010.9 1007.1 0.2
29/05:00am 15.0 12.7 13.0 88 1.1 ESE 17 20 9 11 1010.6 1006.8 0.2
29/04:30am 15.2 12.5 13.4 89 1.0 E 20 26 11 14 1010.4 1006.6 0.2
29/04:00am 15.6 13.1 13.6 88 1.2 E 19 26 10 14 1010.1 1006.4 0.2
29/03:30am 15.5 13.1 13.7 89 1.0 E 19 24 10 13 1009.7 1006.0 0.2
29/03:00am 15.4 14.1 13.6 89 1.0 ESE 13 15 7 8 1010.0 1006.3 0.2
29/02:30am 15.8 14.6 14.0 89 1.0 E 13 15 7 8 1010.4 1006.6 0.2
29/02:00am 15.9 14.3 13.9 88 1.2 ESE 15 20 8 11 1010.5 1006.7 0.2
29/01:30am 16.1 14.1 13.8 86 1.3 ESE 17 22 9 12 1010.4 1006.6 0.0
29/01:00am 16.3 13.8 14.0 86 1.3 ESE 20 28 11 15 1010.8 1007.0 0.0
29/12:30am 16.5 14.2 14.2 86 1.4 ESE 19 24 10 13 1011.1 1007.4 0.0
29/12:00am 16.5 14.3 14.3 87 1.3 E 19 24 10 13 1011.3 1007.6 0.0
 
Date/Time
EST
Tmp

°C
App
Tmp
°C
Dew
Point
°C
Rel
Hum
%
Delta-T

°C
Wind Press
QNH
hPa
Press
MSL
hPa
Rain
since
9 am
mm
Dir
 
Spd
km/h
Gust
km/h
Spd
kts
Gust
kts
28/11:30pm 16.2 14.5 14.6 90 0.9 E 17 22 9 12 1011.5 1007.8 0.0
28/11:00pm 16.4 14.7 14.8 90 1.0 E 17 22 9 12 1011.5 1007.8 0.0
28/10:30pm 16.5 14.2 14.7 89 1.1 E 20 26 11 14 1011.6 1007.9 0.0
28/10:00pm 16.6 13.7 15.0 90 1.0 ESE 24 28 13 15 1011.5 1007.8 0.0
28/09:30pm 16.9 14.0 15.2 90 1.0 ESE 24 30 13 16 1011.4 1007.7 0.0
28/09:00pm 16.9 14.6 15.6 92 0.8 E 22 30 12 16 1011.2 1007.5 0.0
28/08:30pm 17.0 14.8 15.9 93 0.7 E 22 30 12 16 1011.3 1007.6 0.0
28/08:01pm 17.1 15.5 16.1 94 0.6 E 19 22 10 12 1011.3 1007.6 0.0
28/08:00pm 17.1 15.5 16.1 94 0.6 E 19 22 10 12 1011.3 1007.6 0.0
28/07:30pm 17.1 15.5 16.0 93 0.7 E 19 22 10 12 1011.1 1007.4 0.0
28/07:21pm 17.0 15.2 15.9 93 0.7 E 20 26 11 14 1010.9 1007.1 0.0
28/07:00pm 17.0 15.2 15.9 93 0.7 E 20 24 11 13 1010.9 1007.1 0.0
28/06:30pm 17.3 15.3 15.6 90 1.0 ENE 20 24 11 13 1010.6 1006.8 0.0
28/06:00pm 17.5 15.5 16.5 94 0.6 E 22 28 12 15 1010.3 1006.5 0.0
28/05:30pm 17.7 16.4 16.7 94 0.6 E 19 24 10 13 1009.9 1006.2 0.0
28/05:20pm 17.9 17.0 16.9 94 0.6 E 17 20 9 11 1009.9 1006.2 0.0
28/05:00pm 17.7 16.2 16.4 92 0.8 E 19 22 10 12 1009.7 1006.0 0.0
28/04:45pm 18.2 16.9 16.9 92 0.8 ESE 19 22 10 12 1009.7 1006.0 0.0
28/04:30pm 18.2 16.5 16.2 88 1.2 E 20 24 11 13 1009.5 1005.8 0.0
28/04:00pm 18.7 16.9 15.9 84 1.7 E 20 26 11 14 1009.5 1005.8 0.0
28/03:30pm 19.4 17.4 16.4 83 1.9 E 22 32 12 17 1009.3 1005.5 0.0
28/03:00pm 19.5 17.8 16.2 81 2.0 E 20 24 11 13 1009.5 1005.8 0.0
28/02:30pm 19.9 18.3 16.0 78 2.4 E 19 24 10 13 1009.5 1005.8 0.0
28/02:00pm 20.3 18.7 16.1 77 2.6 E 19 24 10 13 1009.3 1005.5 0.0
28/01:30pm 20.6 18.9 15.8 74 2.9 E 19 24 10 13 1009.4 1005.6 0.0
28/01:00pm 21.1 19.9 17.1 78 2.5 ESE 19 28 10 15 1009.6 1005.9 0.0
28/12:44pm 20.9 19.4 16.3 75 2.9 E 19 24 10 13 1009.8 1006.1 0.0
28/12:30pm 21.1 19.8 16.7 76 2.7 ESE 19 28 10 15 1009.9 1006.2 0.0
28/12:23pm 21.1 19.7 16.5 75 2.9 E 19 26 10 14 1010.0 1006.3 0.0
28/12:00pm 20.7 19.7 16.5 77 2.6 ESE 17 22 9 12 1010.1 1006.4 0.0
28/11:30am 20.3 18.2 16.1 77 2.6 ESE 22 28 12 15 1010.3 1006.5 0.0
28/11:00am 19.9 17.6 15.7 77 2.6 ESE 22 28 12 15 1010.3 1006.5 0.0
28/10:30am 19.3 17.1 16.0 81 2.0 E 22 28 12 15 1010.4 1006.6 0.0
28/10:00am 19.3 16.5 15.4 78 2.4 E 24 32 13 17 1010.3 1006.5 0.0
28/09:30am 18.2 14.3 15.5 84 1.6 E 30 35 16 19 1009.9 1006.2 0.0
28/09:00am 17.2 13.8 15.9 92 0.8 E 28 35 15 19 1009.7 1006.0 7.8
28/08:30am 16.3 13.6 15.5 95 0.5 E 24 39 13 21 1009.5 1005.8 7.8
28/08:00am 16.3 12.5 15.7 96 0.4 E 30 39 16 21 1009.5 1005.8 7.6
28/07:46am 16.0 11.6 15.2 95 0.5 E 32 39 17 21 1009.1 1005.3 7.6
28/07:30am 16.1 12.6 15.5 96 0.4 E 28 39 15 21 1008.8 1005.0 7.6
28/07:00am 15.7 11.7 15.1 96 0.4 E 30 35 16 19 1008.6 1004.8 7.6
28/06:30am 15.5 12.2 14.9 96 0.4 E 26 33 14 18 1008.0 1004.2 7.4
28/06:00am 15.4 11.7 14.9 97 0.3 E 28 35 15 19 1007.9 1004.1 7.4
28/05:30am 15.5 12.6 15.0 97 0.3 E 24 32 13 17 1008.2 1004.5 7.2
28/05:00am 15.5 13.3 14.9 96 0.4 E 20 26 11 14 1008.3 1004.6 7.0
28/04:30am 15.5 12.9 15.0 97 0.3 E 22 28 12 15 1008.1 1004.4 6.8
28/04:13am 15.6 13.5 15.1 97 0.3 E 20 28 11 15 1008.3 1004.6 6.8
28/04:00am 15.7 14.2 15.2 97 0.3 E 17 20 9 11 1008.7 1004.9 6.8
28/03:33am 15.7 14.2 15.2 97 0.3 E 17 24 9 13 1008.6 1004.8 6.6
28/03:30am 15.7 14.6 15.2 97 0.3 E 15 20 8 11 1008.6 1004.8 6.6
28/03:00am 15.7 13.2 15.1 96 0.4 E 22 30 12 16 1008.3 1004.6 6.6
28/02:30am 15.7 11.6 14.9 95 0.5 E 30 39 16 21 1008.0 1004.2 6.6
28/02:14am 15.8 11.2 15.2 96 0.4 ESE 33 43 18 23 1008.2 1004.5 6.6
28/02:13am 15.8 10.8 15.0 95 0.5 ESE 35 43 19 23 1008.2 1004.5 6.6
28/02:00am 15.8 11.2 15.2 96 0.4 ESE 33 44 18 24 1008.6 1004.8 6.6
28/01:30am 16.2 12.4 15.7 97 0.3 E 30 44 16 24 1008.9 1005.1 6.2
28/01:08am 16.3 11.5 15.7 96 0.4 E 35 50 19 27 1009.0 1005.2 6.0
28/01:00am 16.3 11.5 15.5 95 0.5 E 35 50 19 27 1008.8 1005.0 5.8
28/12:58am 16.2 12.0 15.6 96 0.4 E 32 50 17 27 1008.8 1005.0 5.8
28/12:30am 17.2 11.9 16.4 95 0.5 E 39 52 21 28 1009.3 1005.5 5.8
28/12:20am 18.1 13.2 17.3 95 0.5 ENE 39 50 21 27 1009.2 1005.4 5.8
28/12:03am 18.1 13.5 17.1 94 0.6 ENE 37 48 20 26 1009.4 1005.6 5.8
28/12:00am 18.1 13.5 17.1 94 0.6 E 37 48 20 26 1009.4 1005.6 5.8
 
Date/Time
EST
Tmp

°C
App
Tmp
°C
Dew
Point
°C
Rel
Hum
%
Delta-T

°C
Wind Press
QNH
hPa
Press
MSL
hPa
Rain
since
9 am
mm
Dir
 
Spd
km/h
Gust
km/h
Spd
kts
Gust
kts
27/11:30pm 18.5 14.9 17.7 95 0.5 E 33 46 18 25 1009.9 1006.2 5.4
27/11:00pm 18.4 15.0 17.6 95 0.5 E 32 39 17 21 1010.1 1006.4 4.4
27/10:57pm 18.5 15.1 17.7 95 0.5 E 32 41 17 22 1010.1 1006.4 4.2
27/10:54pm 18.4 15.0 17.6 95 0.5 E 32 41 17 22 1010.1 1006.4 4.2
27/10:30pm 18.6 15.3 17.9 96 0.4 ENE 32 43 17 23 1010.3 1006.5 4.0
27/10:00pm 18.8 15.3 18.0 95 0.5 E 33 44 18 24 1010.3 1006.5 3.6
27/09:44pm 18.9 15.7 18.2 96 0.4 E 32 44 17 24 1010.0 1006.3 3.6
27/09:30pm 18.9 16.2 18.4 97 0.3 E 30 41 16 22 1009.9 1006.2 3.4
27/09:04pm 19.0 16.2 18.3 96 0.4 E 30 39 16 21 1010.1 1006.4 2.2
27/09:01pm 19.0 16.2 18.3 96 0.4 E 30 39 16 21 1010.1 1006.4 2.0
27/09:00pm 19.1 16.4 18.4 96 0.4 E 30 39 16 21 1010.1 1006.4 2.0
27/08:30pm 19.3 18.1 18.3 94 0.6 E 22 28 12 15 1010.3 1006.5 1.0
27/08:00pm 19.6 16.7 17.9 90 1.1 E 30 41 16 22 1009.7 1006.0 0.2
27/07:52pm 19.8 16.5 17.9 89 1.2 E 32 41 17 22 1009.6 1005.9 0.2
27/07:30pm 19.9 16.6 17.9 88 1.3 E 32 43 17 23 1009.4 1005.6 0.0
27/07:00pm 20.4 17.2 18.2 87 1.4 E 32 46 17 25 1008.7 1004.9 0.0
27/06:30pm 21.7 19.1 18.7 83 1.9 E 30 39 16 21 1008.7 1004.9 0.0
27/06:10pm 22.2 20.3 18.6 80 2.3 ENE 26 35 14 19 1008.6 1004.8 0.0
27/06:00pm 22.6 21.3 19.0 80 2.3 E 24 35 13 19 1008.6 1004.8 0.0
27/05:30pm 23.3 21.0 18.4 74 3.2 E 28 43 15 23 1007.9 1004.1 0.0
27/05:00pm 24.1 21.3 18.3 70 3.8 E 30 41 16 22 1007.3 1003.5 0.0
27/04:30pm 24.6 21.8 18.1 67 4.2 E 30 39 16 21 1007.4 1003.6 0.0
27/04:00pm 25.4 22.3 17.6 62 5.0 E 30 41 16 22 1007.3 1003.5 0.0
27/03:30pm 26.6 24.3 18.5 61 5.3 E 28 39 15 21 1007.6 1003.8 0.0
27/03:00pm 25.9 23.3 18.6 64 4.8 E 30 41 16 22 1008.0 1004.2 0.0
27/02:30pm 27.2 25.0 19.5 62 5.1 E 30 39 16 21 1008.3 1004.6 0.0
27/02:00pm 26.8 25.3 18.6 60 5.4 E 24 33 13 18 1009.1 1005.3 0.0
27/01:30pm 26.6 24.7 17.7 58 5.7 ENE 24 35 13 19 1009.5 1005.8 0.0
27/01:00pm 25.6 24.1 17.8 62 5.0 ENE 22 32 12 17 1009.9 1006.2 0.0
27/12:30pm 25.4 23.4 18.3 65 4.6 E 26 35 14 19 1010.1 1006.4 0.0
27/12:00pm 25.1 22.6 18.1 65 4.5 E 28 37 15 20 1010.6 1006.8 0.0
27/11:30am 25.7 23.6 18.1 63 4.9 E 26 39 14 21 1011.0 1007.3 0.0
27/11:00am 24.9 22.7 18.6 68 4.1 E 28 37 15 20 1011.5 1007.8 0.0
27/10:30am 24.7 22.4 18.4 68 4.1 E 28 37 15 20 1012.0 1008.2 0.0
27/10:00am 24.2 22.2 18.4 70 3.8 ENE 26 33 14 18 1012.1 1008.3 0.0
27/09:45am 23.5 21.3 18.6 74 3.2 E 28 43 15 23 1012.0 1008.2 0.0
27/09:30am 23.4 21.3 18.9 76 2.9 E 28 39 15 21 1012.0 1008.2 0.0
27/09:25am 23.1 21.5 19.1 78 2.6 E 26 39 14 21 1012.1 1008.3 0.0
27/09:07am 22.4 20.2 18.8 80 2.3 E 28 37 15 20 1011.8 1008.1 0.0
27/09:00am 22.2 20.4 18.8 81 2.2 E 26 39 14 21 1011.8 1008.1 2.2
27/08:30am 22.0 19.6 19.2 84 1.8 E 30 41 16 22 1011.2 1007.5 2.2

Latest Capital City Observations: Canberra | Sydney | Melbourne | Brisbane | Adelaide | Perth | Hobart | Darwin

Other Formats:

Comma delimited format used in spreadsheet applications
http://www.bom.gov.au/fwo/IDQ60901/IDQ60901.95551.axf

JavaScript Object Notation format (JSON) in row-major order
http://www.bom.gov.au/fwo/IDQ60901/IDQ60901.95551.json